createdAt,value
2023-10-23T00:03:55.995Z,13.57
2023-10-23T00:08:58.288Z,13.53
2023-10-23T00:14:00.576Z,13.55
2023-10-23T00:19:02.081Z,13.42
2023-10-23T00:24:03.885Z,13.50
2023-10-23T00:29:05.314Z,13.24
2023-10-23T00:34:06.831Z,13.42
2023-10-23T00:39:08.948Z,13.31
2023-10-23T00:44:10.569Z,13.33
2023-10-23T00:49:12.520Z,13.30
2023-10-23T00:54:15.368Z,13.26
2023-10-23T00:59:17.362Z,13.24
2023-10-23T01:04:19.589Z,13.22
2023-10-23T01:09:21.442Z,12.98
2023-10-23T01:14:23.239Z,12.93
2023-10-23T01:19:24.726Z,13.04
2023-10-23T01:24:27.285Z,13.06
2023-10-23T01:29:28.773Z,12.89
2023-10-23T01:34:30.745Z,12.98
2023-10-23T01:39:32.341Z,12.99
2023-10-23T01:44:33.768Z,12.87
2023-10-23T01:49:35.507Z,12.86
2023-10-23T01:54:38.281Z,12.81
2023-10-23T01:59:40.757Z,12.71
2023-10-23T02:04:42.381Z,12.78
2023-10-23T02:09:43.926Z,12.76
2023-10-23T02:14:45.494Z,12.71
2023-10-23T02:19:49.430Z,12.66
2023-10-23T02:24:50.968Z,12.70
2023-10-23T02:29:52.456Z,12.65
2023-10-23T02:34:54.846Z,12.57
2023-10-23T02:39:58.137Z,12.51
2023-10-23T02:45:00.258Z,12.46
2023-10-23T02:50:01.932Z,12.36
2023-10-23T02:55:04.350Z,12.40
2023-10-23T03:00:06.985Z,12.38
2023-10-23T03:05:08.758Z,12.23
2023-10-23T03:10:10.799Z,12.19
2023-10-23T03:15:15.158Z,12.22
2023-10-23T03:20:17.155Z,12.14
2023-10-23T03:25:18.842Z,11.95
2023-10-23T03:30:20.580Z,12.09
2023-10-23T03:35:21.942Z,12.06
2023-10-23T03:40:23.365Z,11.97
2023-10-23T03:45:25.008Z,12.00
2023-10-23T03:50:26.395Z,11.93
2023-10-23T03:55:28.328Z,11.82
2023-10-23T04:00:31.833Z,11.91
2023-10-23T04:05:33.601Z,11.89
2023-10-23T04:10:34.977Z,11.83
2023-10-23T04:15:36.471Z,11.87
2023-10-23T04:20:37.805Z,11.84
2023-10-23T04:25:39.314Z,11.76
2023-10-23T04:30:40.942Z,11.73
2023-10-23T04:35:42.557Z,11.70
2023-10-23T04:40:45.750Z,11.64
2023-10-23T04:45:47.667Z,11.63
2023-10-23T04:50:49.128Z,11.62
2023-10-23T04:55:50.500Z,11.49
2023-10-23T05:00:53.411Z,11.40
2023-10-23T05:05:55.646Z,11.44
2023-10-23T05:11:06.438Z,11.28
2023-10-23T05:16:08.378Z,11.30
2023-10-23T05:21:13.805Z,11.31
2023-10-23T05:26:16.246Z,11.32
2023-10-23T05:31:17.939Z,11.23
2023-10-23T05:36:19.399Z,11.26
2023-10-23T05:41:21.194Z,11.28
2023-10-23T05:46:23.943Z,11.16
2023-10-23T05:51:25.716Z,11.24
2023-10-23T05:56:27.514Z,11.24
2023-10-23T06:01:29.221Z,11.22
2023-10-23T06:06:31.482Z,11.21
2023-10-23T06:11:33.473Z,11.23
2023-10-23T06:16:34.866Z,11.11
2023-10-23T06:21:36.336Z,11.22
2023-10-23T06:26:37.833Z,11.22
2023-10-23T06:31:41.339Z,11.09
2023-10-23T06:36:44.124Z,11.17
2023-10-23T06:41:46.075Z,11.09
2023-10-23T06:46:47.952Z,11.15
2023-10-23T06:51:49.415Z,11.17
2023-10-23T06:56:52.208Z,11.23
2023-10-23T07:01:54.072Z,11.33
2023-10-23T07:06:56.584Z,11.40
2023-10-23T07:11:58.337Z,11.47
2023-10-23T07:17:00.115Z,11.59
2023-10-23T07:22:01.616Z,11.70
2023-10-23T07:27:03.087Z,11.79
2023-10-23T07:32:05.339Z,11.84
2023-10-23T07:37:07.009Z,11.89
2023-10-23T07:42:08.661Z,11.95
2023-10-23T07:47:10.249Z,11.99
2023-10-23T07:52:13.179Z,12.07
2023-10-23T07:57:14.572Z,12.07
2023-10-23T08:02:16.000Z,12.23
2023-10-23T08:07:17.925Z,12.37
2023-10-23T08:12:19.458Z,12.54
2023-10-23T08:17:39.350Z,12.66
2023-10-23T08:22:43.588Z,12.78
2023-10-23T08:27:45.018Z,12.81
2023-10-23T08:32:52.978Z,12.94
2023-10-23T08:37:56.760Z,13.16
2023-10-23T08:42:58.577Z,13.17
2023-10-23T08:48:00.262Z,13.21
2023-10-23T08:53:08.569Z,13.41
2023-10-23T08:58:14.790Z,13.58
2023-10-23T09:03:17.282Z,13.72
2023-10-23T09:08:45.920Z,13.95
2023-10-23T09:13:47.520Z,13.94
2023-10-23T09:18:53.476Z,14.18
2023-10-23T09:23:57.336Z,14.41
2023-10-23T09:28:59.791Z,14.67
2023-10-23T09:34:01.470Z,14.69
2023-10-23T09:39:03.954Z,14.60
2023-10-23T09:44:08.813Z,14.55
2023-10-23T09:49:11.381Z,14.62
2023-10-23T09:54:18.451Z,14.69
2023-10-23T09:59:31.266Z,14.70
2023-10-23T10:05:00.725Z,14.85
2023-10-23T10:10:03.486Z,14.88
2023-10-23T10:15:12.435Z,14.91
2023-10-23T10:20:14.150Z,14.83
2023-10-23T10:25:18.208Z,14.84
2023-10-23T10:30:49.050Z,14.67
2023-10-23T10:36:00.487Z,14.76
2023-10-23T10:41:19.276Z,14.76
2023-10-23T10:46:30.501Z,14.80
2023-10-23T10:51:33.132Z,14.81
2023-10-23T10:56:35.127Z,14.85
2023-10-23T11:01:36.717Z,14.90
2023-10-23T11:06:38.526Z,15.02
2023-10-23T11:11:41.677Z,15.06
2023-10-23T11:16:43.301Z,14.93
2023-10-23T11:21:45.319Z,15.08
2023-10-23T11:26:47.978Z,14.97
2023-10-23T11:31:51.069Z,15.20
2023-10-23T11:36:52.964Z,15.40
2023-10-23T11:41:55.869Z,15.53
2023-10-23T11:47:01.289Z,15.51
2023-10-23T11:52:04.683Z,15.58
2023-10-23T11:57:07.065Z,15.54
2023-10-23T12:02:08.539Z,15.72
2023-10-23T12:07:10.207Z,15.89
2023-10-23T12:12:12.924Z,16.02
2023-10-23T12:17:14.904Z,16.14
2023-10-23T12:22:16.735Z,16.26
2023-10-23T12:27:18.126Z,16.43
2023-10-23T12:33:18.930Z,16.32
2023-10-23T12:37:41.509Z,16.44
2023-10-23T12:42:44.547Z,16.46
2023-10-23T12:47:46.490Z,16.28
2023-10-23T12:52:49.552Z,16.21
2023-10-23T12:57:53.828Z,16.14
2023-10-23T13:02:55.390Z,16.05
2023-10-23T13:07:57.987Z,15.99
2023-10-23T13:12:59.553Z,16.00
2023-10-23T13:18:02.912Z,16.02
2023-10-23T13:23:04.973Z,15.98
2023-10-23T13:28:06.487Z,16.00
2023-10-23T13:33:07.999Z,15.96
2023-10-23T13:38:09.768Z,15.98
2023-10-23T13:43:12.330Z,15.98
2023-10-23T13:48:15.112Z,15.97
2023-10-23T13:53:21.581Z,15.89
2023-10-23T13:58:24.255Z,15.89
2023-10-23T14:03:29.047Z,15.94
2023-10-23T14:08:35.188Z,15.72
2023-10-23T14:13:52.910Z,15.76
2023-10-23T14:18:54.727Z,15.79
2023-10-23T14:23:56.380Z,15.83
2023-10-23T14:28:58.074Z,15.75
2023-10-23T14:33:59.553Z,15.85
2023-10-23T14:39:00.933Z,15.83
2023-10-23T14:44:03.060Z,15.76
2023-10-23T14:49:04.814Z,15.73
2023-10-23T14:54:06.579Z,15.74
2023-10-23T14:59:08.089Z,15.79
2023-10-23T15:04:10.644Z,15.77
2023-10-23T15:09:12.429Z,15.76
2023-10-23T15:14:13.943Z,15.77
2023-10-23T15:19:15.778Z,15.76
2023-10-23T15:24:18.172Z,15.75
2023-10-23T15:29:19.928Z,15.70
2023-10-23T15:34:22.187Z,15.66
2023-10-23T15:39:23.823Z,15.44
2023-10-23T15:44:31.940Z,15.48
2023-10-23T15:49:33.608Z,15.45
2023-10-23T15:54:35.307Z,15.40
2023-10-23T15:59:36.894Z,15.38
2023-10-23T16:04:38.939Z,15.36
2023-10-23T16:09:40.938Z,15.32
2023-10-23T16:14:55.846Z,15.29
2023-10-23T16:19:58.585Z,15.30
2023-10-23T16:25:00.262Z,15.31
2023-10-23T16:30:03.321Z,15.28
2023-10-23T16:35:05.294Z,15.27
2023-10-23T16:40:07.451Z,15.25
2023-10-23T16:45:09.304Z,15.23
2023-10-23T16:50:11.318Z,15.19
2023-10-23T16:55:13.040Z,15.14
2023-10-23T17:00:16.958Z,15.19
2023-10-23T17:05:18.438Z,15.09
2023-10-23T17:10:20.484Z,15.16
2023-10-23T17:15:22.934Z,15.11
2023-10-23T17:20:25.594Z,15.10
2023-10-23T17:25:27.295Z,15.07
2023-10-23T17:30:28.965Z,14.93
2023-10-23T17:35:30.582Z,14.89
2023-10-23T17:40:38.096Z,14.91
2023-10-23T17:45:39.796Z,14.95
2023-10-23T17:50:41.737Z,14.97
2023-10-23T17:55:43.221Z,14.93
2023-10-23T18:00:44.653Z,14.91
2023-10-23T18:05:47.238Z,14.94
2023-10-23T18:10:48.592Z,14.84
2023-10-23T18:15:50.034Z,14.79
2023-10-23T18:20:55.994Z,14.84
2023-10-23T18:26:03.269Z,14.80
2023-10-23T18:31:05.190Z,14.78
2023-10-23T18:36:14.234Z,14.76
2023-10-23T18:41:20.075Z,14.77
2023-10-23T18:46:22.575Z,14.77
2023-10-23T18:51:25.086Z,14.75
2023-10-23T18:56:26.723Z,14.67
2023-10-23T19:01:29.233Z,14.73
2023-10-23T19:06:31.826Z,14.73
2023-10-23T19:11:33.303Z,14.70
2023-10-23T19:16:34.713Z,14.67
2023-10-23T19:21:36.264Z,14.69
2023-10-23T19:26:37.738Z,14.68
2023-10-23T19:31:39.528Z,14.68
2023-10-23T19:36:41.259Z,14.68
2023-10-23T19:41:49.725Z,14.66
2023-10-23T19:46:51.592Z,14.60
2023-10-23T19:51:54.838Z,14.64
2023-10-23T19:56:57.402Z,14.61
2023-10-23T20:02:02.296Z,14.62
2023-10-23T20:07:04.145Z,14.61
2023-10-23T20:12:06.075Z,14.52
2023-10-23T20:17:07.818Z,14.47
2023-10-23T20:22:09.354Z,14.48
2023-10-23T20:27:10.737Z,14.45
2023-10-23T20:32:13.025Z,14.38
2023-10-23T20:37:14.428Z,14.37
2023-10-23T20:42:16.054Z,14.34
2023-10-23T20:47:17.404Z,14.36
2023-10-23T20:52:18.739Z,14.36
2023-10-23T20:57:20.312Z,14.28
2023-10-23T21:02:21.719Z,14.33
2023-10-23T21:07:23.255Z,14.30
2023-10-23T21:12:24.728Z,14.32
2023-10-23T21:17:26.098Z,14.27
2023-10-23T21:22:27.819Z,14.22
2023-10-23T21:27:29.259Z,14.24
2023-10-23T21:32:30.691Z,14.21
2023-10-23T21:37:32.062Z,14.13
2023-10-23T21:42:33.427Z,14.20
2023-10-23T21:47:38.281Z,14.20
2023-10-23T21:52:40.166Z,14.24
2023-10-23T21:57:42.262Z,14.18
2023-10-23T22:02:47.125Z,14.19
2023-10-23T22:07:49.783Z,14.12
2023-10-23T22:12:54.699Z,14.08
2023-10-23T22:17:56.283Z,14.12
2023-10-23T22:22:57.693Z,14.16
2023-10-23T22:27:59.170Z,14.09
2023-10-23T22:38:09.769Z,14.10
2023-10-23T22:43:14.573Z,14.11
2023-10-23T22:48:15.927Z,14.18
2023-10-23T22:53:17.634Z,14.22
2023-10-23T22:58:20.736Z,14.27
2023-10-23T23:03:22.465Z,14.31
2023-10-23T23:08:27.424Z,14.33
2023-10-23T23:13:29.059Z,14.31
2023-10-23T23:18:31.503Z,14.37
2023-10-23T23:23:48.482Z,14.39
2023-10-23T23:28:49.810Z,14.34
2023-10-23T23:33:51.271Z,14.38
2023-10-23T23:38:53.405Z,14.38
2023-10-23T23:43:54.766Z,14.30
2023-10-23T23:48:56.276Z,14.37
2023-10-23T23:53:57.669Z,14.29
2023-10-23T23:58:59.090Z,14.28
